createdAt,value
2022-11-19T00:00:42.430Z,8.63
2022-11-19T00:05:46.249Z,8.52
2022-11-19T00:10:47.733Z,8.41
2022-11-19T00:15:49.154Z,8.38
2022-11-19T00:20:50.955Z,8.38
2022-11-19T00:25:52.349Z,8.37
2022-11-19T00:30:53.781Z,8.27
2022-11-19T00:35:56.560Z,8.12
2022-11-19T00:40:58.026Z,8.12
2022-11-19T00:45:59.435Z,8.31
2022-11-19T00:51:00.862Z,8.48
2022-11-19T00:56:13.001Z,8.60
2022-11-19T01:01:16.096Z,8.69
2022-11-19T01:06:20.442Z,8.72
2022-11-19T01:11:24.817Z,8.76
2022-11-19T01:16:35.762Z,8.72
2022-11-19T01:21:37.696Z,8.72
2022-11-19T01:26:44.297Z,8.75
2022-11-19T01:31:48.245Z,8.83
2022-11-19T01:36:49.738Z,8.92
2022-11-19T01:41:51.133Z,8.94
2022-11-19T01:46:52.587Z,8.96
2022-11-19T01:52:00.577Z,8.99
2022-11-19T01:57:06.424Z,9.01
2022-11-19T02:02:07.994Z,9.02
2022-11-19T02:07:11.758Z,9.03
2022-11-19T02:12:40.483Z,9.05
2022-11-19T02:18:13.023Z,9.03
2022-11-19T02:23:46.755Z,9.05
2022-11-19T02:28:52.805Z,9.07
2022-11-19T02:33:57.675Z,9.10
2022-11-19T02:39:20.695Z,9.12
2022-11-19T02:45:00.753Z,8.93
2022-11-19T02:50:09.590Z,8.85
2022-11-19T02:55:21.446Z,8.78
2022-11-19T03:00:41.914Z,8.78
2022-11-19T03:05:49.598Z,8.76
2022-11-19T03:11:04.323Z,8.80
2022-11-19T03:16:30.768Z,8.83
2022-11-19T03:21:40.315Z,8.84
2022-11-19T03:26:49.051Z,8.81
2022-11-19T03:31:58.419Z,8.73
2022-11-19T03:37:03.530Z,8.71
2022-11-19T03:42:09.758Z,8.81
2022-11-19T03:47:16.564Z,8.90
2022-11-19T03:52:20.811Z,8.98
2022-11-19T03:57:25.118Z,9.00
2022-11-19T04:02:26.807Z,8.99
2022-11-19T04:07:28.279Z,9.00
2022-11-19T04:12:29.785Z,9.00
2022-11-19T04:17:31.238Z,8.99
2022-11-19T04:22:32.747Z,8.87
2022-11-19T04:27:34.192Z,8.81
2022-11-19T04:32:35.701Z,8.76
2022-11-19T04:37:37.195Z,8.69
2022-11-19T04:42:38.699Z,8.72
2022-11-19T04:47:40.184Z,8.58
2022-11-19T04:52:44.044Z,8.49
2022-11-19T04:57:46.191Z,8.39
2022-11-19T05:02:47.663Z,8.34
2022-11-19T05:07:49.123Z,8.33
2022-11-19T05:12:53.399Z,8.33
2022-11-19T05:17:55.026Z,8.34
2022-11-19T05:22:56.602Z,8.33
2022-11-19T05:27:58.034Z,8.33
2022-11-19T05:32:59.472Z,8.37
2022-11-19T05:38:01.495Z,8.38
2022-11-19T05:43:09.859Z,8.43
2022-11-19T05:48:11.289Z,8.50
2022-11-19T05:53:12.916Z,8.54
2022-11-19T05:58:14.450Z,8.58
2022-11-19T06:03:16.099Z,8.62
2022-11-19T06:08:18.140Z,8.68
2022-11-19T06:13:20.064Z,8.74
2022-11-19T06:18:21.589Z,8.73
2022-11-19T06:23:23.056Z,8.72
2022-11-19T06:28:24.540Z,8.68
2022-11-19T06:33:26.075Z,8.62
2022-11-19T06:38:27.574Z,8.58
2022-11-19T06:43:29.137Z,8.55
2022-11-19T06:48:30.685Z,8.50
2022-11-19T06:53:33.223Z,8.47
2022-11-19T06:58:34.881Z,8.47
2022-11-19T07:03:36.486Z,8.55
2022-11-19T07:08:39.388Z,8.64
2022-11-19T07:13:59.643Z,8.77
2022-11-19T07:19:06.555Z,8.95
2022-11-19T07:24:10.189Z,9.04
2022-11-19T07:29:14.009Z,9.13
2022-11-19T07:34:15.522Z,9.13
2022-11-19T07:39:17.727Z,9.20
2022-11-19T07:44:19.811Z,9.39
2022-11-19T07:49:21.761Z,9.53
2022-11-19T07:54:23.556Z,9.58
2022-11-19T07:59:27.018Z,9.55
2022-11-19T08:04:29.232Z,9.41
2022-11-19T08:09:30.723Z,9.39
2022-11-19T08:14:32.280Z,9.39
2022-11-19T08:19:33.779Z,9.37
2022-11-19T08:24:35.286Z,9.31
2022-11-19T08:29:36.795Z,9.33
2022-11-19T08:34:38.488Z,9.42
2022-11-19T08:39:40.613Z,9.54
2022-11-19T08:44:42.218Z,9.61
2022-11-19T08:49:44.140Z,9.76
2022-11-19T08:54:45.661Z,9.81
2022-11-19T08:59:47.216Z,9.91
2022-11-19T09:04:48.765Z,9.93
2022-11-19T09:09:50.221Z,9.96
2022-11-19T09:14:51.971Z,9.92
2022-11-19T09:19:53.423Z,9.91
2022-11-19T09:24:54.882Z,9.94
2022-11-19T09:29:56.446Z,9.93
2022-11-19T09:34:57.998Z,9.83
2022-11-19T09:40:00.356Z,9.78
2022-11-19T09:45:17.234Z,9.74
2022-11-19T09:50:23.025Z,9.73
2022-11-19T09:55:37.021Z,9.69
2022-11-19T10:00:38.845Z,9.62
2022-11-19T10:06:05.502Z,9.61
2022-11-19T10:11:22.474Z,9.70
2022-11-19T10:16:53.815Z,9.89
2022-11-19T10:22:08.237Z,10.02
2022-11-19T10:27:26.151Z,10.08
2022-11-19T10:32:33.074Z,10.05
2022-11-19T10:37:41.209Z,10.03
2022-11-19T10:42:49.981Z,10.16
2022-11-19T10:48:08.858Z,10.19
2022-11-19T10:53:20.229Z,10.24
2022-11-19T10:58:39.144Z,10.16
2022-11-19T11:03:58.424Z,10.20
2022-11-19T11:08:59.988Z,10.11
2022-11-19T11:14:33.914Z,10.04
2022-11-19T11:19:35.691Z,9.93
2022-11-19T11:24:38.853Z,9.93
2022-11-19T11:29:40.337Z,9.90
2022-11-19T11:34:43.851Z,9.91
2022-11-19T11:39:50.671Z,9.87
2022-11-19T11:44:56.118Z,9.91
2022-11-19T11:50:14.962Z,9.95
2022-11-19T11:55:25.320Z,10.02
2022-11-19T12:00:37.255Z,10.04
2022-11-19T12:05:44.950Z,10.05
2022-11-19T12:11:15.267Z,10.02
2022-11-19T12:16:21.778Z,10.01
2022-11-19T12:21:50.623Z,9.98
2022-11-19T12:27:04.616Z,9.94
2022-11-19T12:32:15.158Z,10.02
2022-11-19T12:37:35.395Z,10.08
2022-11-19T12:43:09.745Z,10.15
2022-11-19T12:48:39.219Z,10.21
2022-11-19T12:54:02.255Z,10.17
2022-11-19T12:59:35.552Z,10.18
2022-11-19T13:04:45.761Z,10.21
2022-11-19T13:10:00.773Z,10.24
2022-11-19T13:15:24.452Z,10.26
2022-11-19T13:20:40.919Z,10.27
2022-11-19T13:25:50.406Z,10.23
2022-11-19T13:31:08.931Z,10.16
2022-11-19T13:36:25.028Z,10.18
2022-11-19T13:42:03.171Z,10.22
2022-11-19T13:47:12.682Z,10.28
2022-11-19T13:52:23.421Z,10.31
2022-11-19T13:57:33.240Z,10.36
2022-11-19T14:02:53.140Z,10.43
2022-11-19T14:08:03.818Z,10.44
2022-11-19T14:13:31.326Z,10.45
2022-11-19T14:19:02.088Z,10.44
2022-11-19T14:24:45.068Z,10.45
2022-11-19T14:29:46.538Z,10.42
2022-11-19T14:35:13.863Z,10.07
2022-11-19T14:40:17.655Z,9.69
2022-11-19T14:45:19.835Z,9.35
2022-11-19T14:50:26.850Z,9.15
2022-11-19T14:55:34.572Z,8.97
2022-11-19T15:00:41.472Z,8.86
2022-11-19T15:05:46.165Z,8.79
2022-11-19T15:11:14.747Z,8.69
2022-11-19T15:16:20.097Z,8.58
2022-11-19T15:21:30.526Z,8.41
2022-11-19T15:26:50.948Z,8.30
2022-11-19T15:32:13.357Z,8.21
2022-11-19T15:37:19.211Z,8.16
2022-11-19T15:42:30.079Z,8.11
2022-11-19T15:47:41.088Z,8.09
2022-11-19T15:52:42.603Z,8.04
2022-11-19T15:57:46.299Z,8.02
2022-11-19T16:02:50.897Z,8.05
2022-11-19T16:07:53.335Z,8.03
2022-11-19T16:13:18.750Z,8.02
2022-11-19T16:18:20.270Z,8.00
2022-11-19T16:23:24.795Z,7.99
2022-11-19T16:28:30.523Z,7.96
2022-11-19T16:33:34.103Z,7.90
2022-11-19T16:38:36.621Z,7.89
2022-11-19T16:43:40.707Z,7.90
2022-11-19T16:48:50.900Z,7.81
2022-11-19T16:53:52.839Z,7.77
2022-11-19T16:59:01.727Z,7.79
2022-11-19T17:04:07.475Z,7.81
2022-11-19T17:09:29.626Z,7.69
2022-11-19T17:14:31.326Z,7.67
2022-11-19T17:19:34.609Z,7.73
2022-11-19T17:24:42.719Z,7.78
2022-11-19T17:29:45.414Z,7.79
2022-11-19T17:34:51.158Z,7.71
2022-11-19T17:39:52.696Z,7.65
2022-11-19T17:44:54.201Z,7.62
2022-11-19T17:49:55.669Z,7.61
2022-11-19T17:55:02.039Z,7.61
2022-11-19T18:00:04.364Z,7.63
2022-11-19T18:05:23.297Z,7.67
2022-11-19T18:10:24.988Z,7.68
2022-11-19T18:15:26.510Z,7.63
2022-11-19T18:20:28.241Z,7.62
2022-11-19T18:25:29.728Z,7.65
2022-11-19T18:30:31.190Z,7.66
2022-11-19T18:35:33.080Z,7.68
2022-11-19T18:40:35.717Z,7.67
2022-11-19T18:45:37.178Z,7.63
2022-11-19T18:50:38.727Z,7.56
2022-11-19T18:55:40.149Z,7.50
2022-11-19T19:00:42.963Z,7.40
2022-11-19T19:05:44.400Z,7.34
2022-11-19T19:10:45.818Z,7.36
2022-11-19T19:15:47.289Z,7.33
2022-11-19T19:20:48.714Z,7.31
2022-11-19T19:25:50.182Z,7.37
2022-11-19T19:30:57.658Z,7.33
2022-11-19T19:35:59.178Z,7.30
2022-11-19T19:41:10.052Z,7.28
2022-11-19T19:46:15.295Z,7.34
2022-11-19T19:51:17.884Z,7.32
2022-11-19T19:56:22.305Z,7.30
2022-11-19T20:01:27.193Z,7.29
2022-11-19T20:06:30.327Z,7.27
2022-11-19T20:11:31.861Z,7.26
2022-11-19T20:16:34.025Z,7.24
2022-11-19T20:21:36.637Z,7.23
2022-11-19T20:26:39.434Z,7.24
2022-11-19T20:31:45.459Z,7.21
2022-11-19T20:36:46.949Z,7.20
2022-11-19T20:42:06.760Z,7.18
2022-11-19T20:47:08.212Z,7.16
2022-11-19T20:52:10.788Z,7.15
2022-11-19T20:57:12.308Z,7.10
2022-11-19T21:02:13.840Z,7.07
2022-11-19T21:07:15.991Z,7.09
2022-11-19T21:12:17.580Z,7.07
2022-11-19T21:17:19.026Z,7.05
2022-11-19T21:22:20.461Z,7.04
2022-11-19T21:27:21.912Z,7.04
2022-11-19T21:32:23.342Z,7.05
2022-11-19T21:37:24.785Z,7.04
2022-11-19T21:42:26.241Z,7.01
2022-11-19T21:47:27.977Z,6.94
2022-11-19T21:52:29.691Z,6.97
2022-11-19T21:57:31.187Z,6.99
2022-11-19T22:02:32.910Z,7.00
2022-11-19T22:07:34.487Z,7.01
2022-11-19T22:12:35.969Z,7.05
2022-11-19T22:17:38.302Z,7.06
2022-11-19T22:22:44.974Z,7.06
2022-11-19T22:27:46.444Z,7.02
2022-11-19T22:32:47.890Z,6.97
2022-11-19T22:37:49.371Z,6.95
2022-11-19T22:42:50.821Z,6.86
2022-11-19T22:47:52.270Z,6.88
2022-11-19T22:52:53.698Z,6.90
2022-11-19T22:57:55.141Z,6.85
2022-11-19T23:02:56.581Z,6.78
2022-11-19T23:07:58.078Z,6.77
2022-11-19T23:13:22.413Z,6.74
2022-11-19T23:18:23.912Z,6.73
2022-11-19T23:23:25.559Z,6.75
2022-11-19T23:28:28.788Z,6.77
2022-11-19T23:33:30.306Z,6.78
2022-11-19T23:38:31.998Z,6.79
2022-11-19T23:43:34.133Z,6.76
2022-11-19T23:48:36.615Z,6.71
2022-11-19T23:53:38.187Z,6.74
2022-11-19T23:58:40.017Z,6.75
